Time;durP1;ratioP1;P1;durP2;ratioP2;P2;SDS_P1;SDS_P2;PMS_P1;PMS_P2;Temp;Humidity;BMP_temperature;BMP_pressure;BME280_temperature;BME280_humidity;BME280_pressure;Samples;Min_cycle;Max_cycle;Signal;HPM_P1;HPM_P2
2023/06/30 00:01:57;;;;;;;10.48;3.03;;;;;;;;;;4873440;29;20047;-61
2023/06/30 00:04:26;;;;;;;11.38;2.72;;;;;;;;;;4879984;29;20044;-61
2023/06/30 00:06:56;;;;;;;8.75;2.40;;;;;;;;;;4879386;29;20043;-61
2023/06/30 00:09:23;;;;;;;7.32;2.78;;;;;;;;;;4881704;29;20055;-61
2023/06/30 00:11:50;;;;;;;13.48;2.72;;;;;;;;;;4881514;29;20040;-61
2023/06/30 00:14:16;;;;;;;7.15;2.90;;;;;;;;;;4881498;29;20028;-61
2023/06/30 00:16:42;;;;;;;6.32;2.45;;;;;;;;;;4881531;29;20075;-61
2023/06/30 00:19:08;;;;;;;10.98;2.78;;;;;;;;;;4882274;29;20036;-61
2023/06/30 00:21:34;;;;;;;6.90;2.15;;;;;;;;;;4883002;29;20040;-61
2023/06/30 00:24:04;;;;;;;6.72;2.45;;;;;;;;;;4884593;29;20032;-61
2023/06/30 00:26:30;;;;;;;10.52;2.28;;;;;;;;;;4884634;29;20040;-61
2023/06/30 00:28:56;;;;;;;8.88;2.30;;;;;;;;;;4883804;29;20040;-61
2023/06/30 00:31:23;;;;;;;12.45;2.53;;;;;;;;;;4884261;29;20040;-61
2023/06/30 00:33:49;;;;;;;9.02;2.40;;;;;;;;;;4885564;29;20043;-61
2023/06/30 00:36:15;;;;;;;9.60;2.83;;;;;;;;;;4884289;29;20032;-61
2023/06/30 00:38:41;;;;;;;6.43;2.00;;;;;;;;;;4882968;29;20047;-61
2023/06/30 00:41:07;;;;;;;9.65;2.50;;;;;;;;;;4883020;29;20573;-61
2023/06/30 00:43:33;;;;;;;6.53;2.13;;;;;;;;;;4884160;29;20655;-61
2023/06/30 00:45:59;;;;;;;9.07;2.58;;;;;;;;;;4883812;29;20036;-61
2023/06/30 00:48:25;;;;;;;7.40;2.83;;;;;;;;;;4883091;29;20942;-61
2023/06/30 00:50:51;;;;;;;7.03;2.40;;;;;;;;;;4882599;29;20086;-61
2023/06/30 00:53:17;;;;;;;9.43;2.47;;;;;;;;;;4883579;29;20487;-61
2023/06/30 00:55:44;;;;;;;7.75;2.83;;;;;;;;;;4883501;29;20032;-61
2023/06/30 00:58:10;;;;;;;10.20;2.30;;;;;;;;;;4885000;29;20047;-61
2023/06/30 01:00:37;;;;;;;6.55;2.63;;;;;;;;;;4885216;29;20099;-61
2023/06/30 01:03:09;;;;;;;10.77;3.20;;;;;;;;;;4884624;29;20064;-61
2023/06/30 01:05:41;;;;;;;8.27;2.30;;;;;;;;;;4863753;29;20058;-61
2023/06/30 01:08:10;;;;;;;8.30;3.15;;;;;;;;;;4882930;29;20062;-61
2023/06/30 01:10:36;;;;;;;7.65;2.20;;;;;;;;;;4883287;29;20092;-61
2023/06/30 01:13:05;;;;;;;8.38;2.60;;;;;;;;;;4865906;29;21392;-61
2023/06/30 01:15:31;;;;;;;8.82;2.92;;;;;;;;;;4883684;29;20047;-61
2023/06/30 01:18:00;;;;;;;8.00;2.60;;;;;;;;;;4882579;29;20056;-61
2023/06/30 01:20:30;;;;;;;8.27;2.85;;;;;;;;;;4881750;29;21810;-62
2023/06/30 01:22:56;;;;;;;9.48;2.65;;;;;;;;;;4880335;29;20040;-61
2023/06/30 01:25:25;;;;;;;15.32;3.80;;;;;;;;;;4881329;29;20039;-61
2023/06/30 01:27:52;;;;;;;8.73;3.08;;;;;;;;;;4883301;29;21195;-61
2023/06/30 01:30:19;;;;;;;10.77;3.03;;;;;;;;;;4883675;29;20028;-61
2023/06/30 01:32:45;;;;;;;10.43;2.88;;;;;;;;;;4867170;29;20058;-61
2023/06/30 01:35:12;;;;;;;6.78;2.80;;;;;;;;;;4882721;29;20544;-61
2023/06/30 01:37:38;;;;;;;8.93;2.85;;;;;;;;;;4883240;29;20543;-61
2023/06/30 01:40:05;;;;;;;9.82;3.80;;;;;;;;;;4883944;29;20590;-61
2023/06/30 01:42:31;;;;;;;8.95;2.67;;;;;;;;;;4882251;29;20085;-61
2023/06/30 01:44:58;;;;;;;12.48;3.47;;;;;;;;;;4884190;29;20049;-61
2023/06/30 01:47:25;;;;;;;8.02;2.60;;;;;;;;;;4883428;29;20043;-61
2023/06/30 01:49:51;;;;;;;6.85;2.45;;;;;;;;;;4883274;29;20032;-61
2023/06/30 01:52:18;;;;;;;6.70;2.53;;;;;;;;;;4880728;29;20039;-61
2023/06/30 01:54:44;;;;;;;8.82;2.35;;;;;;;;;;4882686;29;20036;-61
2023/06/30 01:57:11;;;;;;;9.70;2.90;;;;;;;;;;4883704;29;20036;-61
2023/06/30 01:59:37;;;;;;;11.10;2.90;;;;;;;;;;4883259;29;20055;-61
2023/06/30 02:02:03;;;;;;;7.45;2.67;;;;;;;;;;4883581;29;20071;-61
2023/06/30 02:04:29;;;;;;;8.32;2.75;;;;;;;;;;4882855;29;20388;-61
2023/06/30 02:06:56;;;;;;;9.05;2.30;;;;;;;;;;4883629;29;20090;-61
2023/06/30 02:09:22;;;;;;;9.95;2.45;;;;;;;;;;4882151;29;20036;-61
2023/06/30 02:11:48;;;;;;;9.00;2.90;;;;;;;;;;4883077;29;20051;-62
2023/06/30 02:14:14;;;;;;;9.02;2.97;;;;;;;;;;4883617;29;20040;-61
2023/06/30 02:16:40;;;;;;;7.78;2.25;;;;;;;;;;4881239;29;20060;-61
2023/06/30 02:19:06;;;;;;;10.25;2.58;;;;;;;;;;4879245;29;20036;-61
2023/06/30 02:21:32;;;;;;;9.18;2.50;;;;;;;;;;4880320;29;20037;-62
2023/06/30 02:23:58;;;;;;;8.65;2.95;;;;;;;;;;4880494;29;20044;-61
2023/06/30 02:26:24;;;;;;;7.78;2.75;;;;;;;;;;4880497;29;20064;-61
2023/06/30 02:28:50;;;;;;;12.32;3.42;;;;;;;;;;4879583;29;20044;-61
2023/06/30 02:31:16;;;;;;;9.35;2.72;;;;;;;;;;4879872;29;20056;-61
2023/06/30 02:33:42;;;;;;;7.28;2.80;;;;;;;;;;4879448;29;20040;-61
2023/06/30 02:36:08;;;;;;;10.57;3.22;;;;;;;;;;4880033;29;20424;-61
2023/06/30 02:38:34;;;;;;;9.13;2.90;;;;;;;;;;4880262;29;20036;-61
2023/06/30 02:41:00;;;;;;;6.90;2.50;;;;;;;;;;4879644;29;20040;-62
2023/06/30 02:43:26;;;;;;;10.02;2.80;;;;;;;;;;4880853;29;20044;-61
2023/06/30 02:45:52;;;;;;;9.50;2.85;;;;;;;;;;4879771;29;20033;-61
2023/06/30 02:48:18;;;;;;;10.10;3.10;;;;;;;;;;4879750;29;20124;-62
2023/06/30 02:50:44;;;;;;;5.72;2.47;;;;;;;;;;4879837;29;20039;-61
2023/06/30 02:53:10;;;;;;;8.38;2.70;;;;;;;;;;4879910;29;20096;-61
2023/06/30 02:55:37;;;;;;;12.70;2.67;;;;;;;;;;4879933;29;20032;-62
2023/06/30 02:58:03;;;;;;;11.60;2.88;;;;;;;;;;4879652;29;20041;-61
2023/06/30 03:00:29;;;;;;;9.38;2.67;;;;;;;;;;4880271;29;20055;-61
2023/06/30 03:02:55;;;;;;;11.23;2.67;;;;;;;;;;4879332;29;20048;-61
2023/06/30 03:05:21;;;;;;;6.97;2.15;;;;;;;;;;4879957;29;20119;-61
2023/06/30 03:07:47;;;;;;;10.25;2.60;;;;;;;;;;4880250;29;20036;-61
2023/06/30 03:10:13;;;;;;;10.63;2.63;;;;;;;;;;4881899;29;20032;-61
2023/06/30 03:12:39;;;;;;;11.18;3.08;;;;;;;;;;4880881;29;20037;-61
2023/06/30 03:15:05;;;;;;;9.80;2.60;;;;;;;;;;4882183;29;20051;-61
2023/06/30 03:17:32;;;;;;;9.30;2.70;;;;;;;;;;4881439;29;20048;-61
2023/06/30 03:19:58;;;;;;;8.38;2.85;;;;;;;;;;4881609;29;20040;-61
2023/06/30 03:22:24;;;;;;;7.75;2.72;;;;;;;;;;4878654;29;20032;-61
2023/06/30 03:24:50;;;;;;;8.48;2.95;;;;;;;;;;4881148;29;20040;-61
2023/06/30 03:27:16;;;;;;;7.78;2.90;;;;;;;;;;4881453;29;20036;-61
2023/06/30 03:29:42;;;;;;;8.05;2.42;;;;;;;;;;4883000;29;20040;-61
2023/06/30 03:32:08;;;;;;;6.35;2.40;;;;;;;;;;4884607;29;20033;-61
2023/06/30 03:34:34;;;;;;;8.52;2.47;;;;;;;;;;4885243;29;20066;-61
2023/06/30 03:37:00;;;;;;;7.72;2.22;;;;;;;;;;4884055;29;20047;-61
2023/06/30 03:39:26;;;;;;;8.82;2.50;;;;;;;;;;4883839;29;20123;-61
2023/06/30 03:41:52;;;;;;;8.15;2.58;;;;;;;;;;4884041;29;20039;-61
2023/06/30 03:44:18;;;;;;;6.47;2.60;;;;;;;;;;4884196;29;20123;-61
2023/06/30 03:46:45;;;;;;;7.40;2.25;;;;;;;;;;4883011;29;20065;-61
2023/06/30 03:49:11;;;;;;;8.75;3.08;;;;;;;;;;4883228;29;20040;-61
2023/06/30 03:51:37;;;;;;;11.38;2.83;;;;;;;;;;4883895;29;20035;-61
2023/06/30 03:54:03;;;;;;;7.32;2.10;;;;;;;;;;4881903;29;20036;-61
2023/06/30 03:56:29;;;;;;;8.25;2.38;;;;;;;;;;4865650;29;20927;-61
2023/06/30 03:58:55;;;;;;;9.40;2.67;;;;;;;;;;4881980;29;20036;-61
2023/06/30 04:01:21;;;;;;;7.28;2.55;;;;;;;;;;4882442;29;20052;-61
2023/06/30 04:03:51;;;;;;;8.70;2.67;;;;;;;;;;4882615;29;20319;-61
2023/06/30 04:06:17;;;;;;;7.78;2.53;;;;;;;;;;4882492;29;20849;-61
2023/06/30 04:08:44;;;;;;;12.38;2.75;;;;;;;;;;4881807;29;20047;-61
2023/06/30 04:11:10;;;;;;;6.05;2.28;;;;;;;;;;4882105;29;20059;-61
2023/06/30 04:13:36;;;;;;;7.25;2.30;;;;;;;;;;4883751;29;20609;-61
2023/06/30 04:16:02;;;;;;;8.77;2.72;;;;;;;;;;4883177;29;20123;-61
2023/06/30 04:18:28;;;;;;;9.40;2.60;;;;;;;;;;4881909;29;20052;-61
2023/06/30 04:20:54;;;;;;;5.68;2.58;;;;;;;;;;4882793;29;20527;-61
2023/06/30 04:23:21;;;;;;;9.27;2.70;;;;;;;;;;4883142;29;20055;-61
2023/06/30 04:25:47;;;;;;;12.02;2.45;;;;;;;;;;4882262;29;20405;-61
2023/06/30 04:28:13;;;;;;;10.77;2.22;;;;;;;;;;4882616;29;20131;-61
2023/06/30 04:30:39;;;;;;;7.28;2.70;;;;;;;;;;4881599;29;20044;-61
2023/06/30 04:33:05;;;;;;;8.18;2.40;;;;;;;;;;4881099;29;20044;-61
2023/06/30 04:35:31;;;;;;;8.40;2.50;;;;;;;;;;4881893;29;20044;-61
2023/06/30 04:37:57;;;;;;;9.20;2.20;;;;;;;;;;4881605;29;20036;-61
2023/06/30 04:40:23;;;;;;;7.18;2.90;;;;;;;;;;4881592;29;20051;-61
2023/06/30 04:42:49;;;;;;;7.35;2.20;;;;;;;;;;4882204;29;20036;-61
2023/06/30 04:45:15;;;;;;;7.68;2.30;;;;;;;;;;4865565;29;20597;-61
2023/06/30 04:47:41;;;;;;;11.38;2.97;;;;;;;;;;4880627;29;20051;-61
2023/06/30 04:50:07;;;;;;;9.77;2.55;;;;;;;;;;4880739;29;21625;-61
2023/06/30 04:52:33;;;;;;;8.90;2.38;;;;;;;;;;4881607;29;20044;-61
2023/06/30 04:54:59;;;;;;;8.23;2.58;;;;;;;;;;4880618;29;20040;-61
2023/06/30 04:57:26;;;;;;;8.20;2.53;;;;;;;;;;4881221;29;20036;-61
2023/06/30 04:59:54;;;;;;;6.93;2.10;;;;;;;;;;4881874;29;20381;-62
2023/06/30 05:02:21;;;;;;;7.07;1.88;;;;;;;;;;4880468;29;20028;-61
2023/06/30 05:04:49;;;;;;;5.45;1.90;;;;;;;;;;4880955;29;20028;-61
2023/06/30 05:07:15;;;;;;;8.02;2.15;;;;;;;;;;4881044;29;20044;-61
2023/06/30 05:09:41;;;;;;;9.18;2.63;;;;;;;;;;4881795;29;20040;-61
2023/06/30 05:12:07;;;;;;;6.03;1.67;;;;;;;;;;4881111;29;20095;-61
2023/06/30 05:14:33;;;;;;;7.25;2.38;;;;;;;;;;4879613;29;20067;-62
2023/06/30 05:16:59;;;;;;;8.32;2.42;;;;;;;;;;4864938;29;20048;-61
2023/06/30 05:19:25;;;;;;;7.15;2.00;;;;;;;;;;4881638;29;20083;-61
2023/06/30 05:21:52;;;;;;;7.00;2.10;;;;;;;;;;4880110;29;20217;-61
2023/06/30 05:24:18;;;;;;;8.30;2.00;;;;;;;;;;4880310;29;20125;-61
2023/06/30 05:26:44;;;;;;;10.02;2.35;;;;;;;;;;4880749;29;20152;-62
2023/06/30 05:29:10;;;;;;;6.10;2.47;;;;;;;;;;4880589;29;20158;-62
2023/06/30 05:31:36;;;;;;;6.53;1.65;;;;;;;;;;4880344;29;20158;-62
2023/06/30 05:34:02;;;;;;;5.53;1.95;;;;;;;;;;4881333;29;20488;-62
2023/06/30 05:36:30;;;;;;;5.03;1.77;;;;;;;;;;4880178;29;20100;-62
2023/06/30 05:38:56;;;;;;;6.35;1.90;;;;;;;;;;4880514;29;20471;-61
2023/06/30 05:41:22;;;;;;;11.23;2.20;;;;;;;;;;4880888;29;20032;-62
2023/06/30 05:43:48;;;;;;;8.65;2.35;;;;;;;;;;4863540;29;20184;-61
2023/06/30 05:46:14;;;;;;;5.90;2.00;;;;;;;;;;4880457;29;20163;-61
2023/06/30 05:48:40;;;;;;;8.93;1.95;;;;;;;;;;4863617;29;20167;-61
2023/06/30 05:51:06;;;;;;;6.57;2.15;;;;;;;;;;4879390;29;20784;-61
2023/06/30 05:53:32;;;;;;;7.85;2.10;;;;;;;;;;4879562;29;20040;-61
2023/06/30 05:55:58;;;;;;;6.10;1.70;;;;;;;;;;4879777;29;20117;-62
2023/06/30 05:58:25;;;;;;;7.32;2.30;;;;;;;;;;4880352;29;20063;-62
2023/06/30 06:00:51;;;;;;;6.80;1.90;;;;;;;;;;4880709;29;20484;-61
2023/06/30 06:03:17;;;;;;;9.55;1.80;;;;;;;;;;4880814;29;20039;-61
2023/06/30 06:05:43;;;;;;;6.78;1.90;;;;;;;;;;4879638;29;20039;-62
2023/06/30 06:08:09;;;;;;;6.60;1.80;;;;;;;;;;4879963;29;20051;-62
2023/06/30 06:10:36;;;;;;;6.30;1.80;;;;;;;;;;4880492;29;20051;-62
2023/06/30 06:13:02;;;;;;;3.72;1.60;;;;;;;;;;4879022;29;20416;-62
2023/06/30 06:15:28;;;;;;;8.90;2.15;;;;;;;;;;4878547;29;20903;-62
2023/06/30 06:17:54;;;;;;;4.82;1.85;;;;;;;;;;4880684;29;20183;-62
2023/06/30 06:20:20;;;;;;;10.95;1.88;;;;;;;;;;4864026;29;20068;-62
2023/06/30 06:22:46;;;;;;;9.65;1.88;;;;;;;;;;4878623;29;20044;-62
2023/06/30 06:25:12;;;;;;;7.43;1.42;;;;;;;;;;4877860;29;20115;-62
2023/06/30 06:27:38;;;;;;;12.57;2.15;;;;;;;;;;4879848;29;20044;-62
2023/06/30 06:30:05;;;;;;;7.07;1.50;;;;;;;;;;4879194;29;20032;-62
2023/06/30 06:32:31;;;;;;;5.88;1.50;;;;;;;;;;4879470;29;20036;-62
2023/06/30 06:34:57;;;;;;;5.70;1.40;;;;;;;;;;4879807;29;20044;-62
2023/06/30 06:37:23;;;;;;;9.55;2.00;;;;;;;;;;4879803;29;20583;-62
2023/06/30 06:39:49;;;;;;;4.32;1.10;;;;;;;;;;4880395;29;20095;-62
2023/06/30 06:42:15;;;;;;;7.20;1.30;;;;;;;;;;4880375;29;20044;-62
2023/06/30 06:44:41;;;;;;;6.25;1.20;;;;;;;;;;4880268;29;20051;-62
2023/06/30 06:47:30;;;;;;;5.03;1.30;;;;;;;;;;4881209;29;20044;-62
2023/06/30 06:49:56;;;;;;;6.70;1.25;;;;;;;;;;4851358;29;20045;-62
2023/06/30 06:52:22;;;;;;;6.10;1.38;;;;;;;;;;4881649;29;20115;-62
2023/06/30 06:54:49;;;;;;;8.75;2.00;;;;;;;;;;4880964;29;20467;-62
2023/06/30 06:57:15;;;;;;;5.22;1.70;;;;;;;;;;4881043;29;21513;-62
2023/06/30 06:59:41;;;;;;;7.18;1.33;;;;;;;;;;4881066;29;20032;-62
2023/06/30 07:02:07;;;;;;;5.38;1.40;;;;;;;;;;4881949;29;20034;-62
2023/06/30 07:04:33;;;;;;;9.27;1.38;;;;;;;;;;4882558;29;20059;-62
2023/06/30 07:06:59;;;;;;;5.43;1.20;;;;;;;;;;4884832;29;20035;-62
2023/06/30 07:09:25;;;;;;;6.13;1.13;;;;;;;;;;4885643;29;20036;-62
2023/06/30 07:11:51;;;;;;;5.57;1.30;;;;;;;;;;4885336;29;20389;-62
2023/06/30 07:14:18;;;;;;;4.60;1.80;;;;;;;;;;4884478;29;20099;-62
2023/06/30 07:16:44;;;;;;;4.70;1.13;;;;;;;;;;4884730;29;20478;-62
2023/06/30 07:19:10;;;;;;;6.40;1.58;;;;;;;;;;4884987;29;20503;-62
2023/06/30 07:21:36;;;;;;;4.97;1.13;;;;;;;;;;4884607;29;20033;-62
2023/06/30 07:24:02;;;;;;;6.30;1.40;;;;;;;;;;4884842;29;20041;-62
2023/06/30 07:26:31;;;;;;;5.70;1.40;;;;;;;;;;4884749;29;20114;-61
2023/06/30 07:28:57;;;;;;;4.53;1.55;;;;;;;;;;4883757;29;21225;-62
2023/06/30 07:31:23;;;;;;;8.43;1.73;;;;;;;;;;4883911;29;20654;-61
2023/06/30 07:33:49;;;;;;;8.02;1.92;;;;;;;;;;4884423;29;20036;-62
2023/06/30 07:36:15;;;;;;;7.25;1.75;;;;;;;;;;4884680;29;20032;-62
2023/06/30 07:38:41;;;;;;;6.70;1.15;;;;;;;;;;4884009;29;20047;-62
2023/06/30 07:41:07;;;;;;;8.23;1.40;;;;;;;;;;4884677;29;20048;-62
2023/06/30 07:43:33;;;;;;;6.78;1.80;;;;;;;;;;4884853;29;20051;-62
2023/06/30 07:45:59;;;;;;;6.68;1.17;;;;;;;;;;4883363;29;21999;-62
2023/06/30 07:48:25;;;;;;;7.63;1.52;;;;;;;;;;4882515;29;20617;-61
2023/06/30 07:50:52;;;;;;;6.70;1.33;;;;;;;;;;4882284;29;20047;-62
2023/06/30 07:53:18;;;;;;;5.43;1.20;;;;;;;;;;4882810;29;20914;-62
2023/06/30 07:55:44;;;;;;;7.50;1.83;;;;;;;;;;4881972;29;20824;-62
2023/06/30 07:58:10;;;;;;;6.68;1.65;;;;;;;;;;4884354;29;20036;-60
2023/06/30 08:00:36;;;;;;;5.45;1.40;;;;;;;;;;4883214;29;20040;-60
2023/06/30 08:03:02;;;;;;;3.83;1.20;;;;;;;;;;4881265;29;20040;-60
2023/06/30 08:05:28;;;;;;;4.70;1.63;;;;;;;;;;4881203;29;20124;-60
2023/06/30 08:07:54;;;;;;;5.00;1.58;;;;;;;;;;4882716;29;20040;-60
2023/06/30 08:10:20;;;;;;;4.35;1.10;;;;;;;;;;4882411;29;20036;-60
2023/06/30 08:12:46;;;;;;;4.82;0.98;;;;;;;;;;4878958;29;20083;-60
2023/06/30 08:15:12;;;;;;;7.65;1.80;;;;;;;;;;4879580;29;20032;-60
2023/06/30 08:17:38;;;;;;;5.32;1.42;;;;;;;;;;4880717;29;20056;-60
2023/06/30 08:20:05;;;;;;;7.38;1.70;;;;;;;;;;4880103;29;20380;-60
2023/06/30 08:22:31;;;;;;;6.65;1.80;;;;;;;;;;4879403;29;20036;-60
2023/06/30 08:24:57;;;;;;;5.30;1.27;;;;;;;;;;4879111;29;20095;-60
2023/06/30 08:27:23;;;;;;;4.93;1.10;;;;;;;;;;4881451;29;20384;-60
2023/06/30 08:29:49;;;;;;;3.55;1.23;;;;;;;;;;4881522;29;20040;-60
2023/06/30 08:32:15;;;;;;;6.82;1.05;;;;;;;;;;4881615;29;20191;-60
2023/06/30 08:34:41;;;;;;;6.18;1.33;;;;;;;;;;4864973;29;20068;-60
2023/06/30 08:37:07;;;;;;;10.05;1.45;;;;;;;;;;4881219;29;20149;-60
2023/06/30 08:39:33;;;;;;;7.82;0.90;;;;;;;;;;4882396;29;20032;-60
2023/06/30 08:42:00;;;;;;;3.50;1.00;;;;;;;;;;4882004;29;20040;-60
2023/06/30 08:44:26;;;;;;;4.70;1.20;;;;;;;;;;4878171;29;20036;-60
2023/06/30 08:46:53;;;;;;;4.25;1.17;;;;;;;;;;4880702;29;20111;-60
2023/06/30 08:49:23;;;;;;;4.60;1.23;;;;;;;;;;4881758;29;20036;-60
2023/06/30 08:51:58;;;;;;;2.60;0.80;;;;;;;;;;4881085;29;20850;-60
2023/06/30 08:54:24;;;;;;;2.53;0.82;;;;;;;;;;4881969;29;21563;-60
2023/06/30 08:56:50;;;;;;;5.63;1.10;;;;;;;;;;4881587;29;20066;-60
2023/06/30 08:59:17;;;;;;;1.40;0.63;;;;;;;;;;4881172;29;20096;-60
2023/06/30 09:01:45;;;;;;;6.32;1.05;;;;;;;;;;4880195;29;20032;-60
2023/06/30 09:04:12;;;;;;;4.82;0.98;;;;;;;;;;4879301;29;20165;-60
2023/06/30 09:06:41;;;;;;;2.90;0.90;;;;;;;;;;4881556;29;20171;-60
2023/06/30 09:09:11;;;;;;;3.22;0.88;;;;;;;;;;4879791;29;20040;-60
2023/06/30 09:11:37;;;;;;;4.80;1.05;;;;;;;;;;4881106;29;21705;-60
2023/06/30 09:14:04;;;;;;;4.78;1.30;;;;;;;;;;4880073;29;20139;-60
2023/06/30 09:16:32;;;;;;;3.15;0.88;;;;;;;;;;4880408;29;20062;-60
2023/06/30 09:18:59;;;;;;;4.03;0.90;;;;;;;;;;4879798;29;20404;-60
2023/06/30 09:21:25;;;;;;;4.63;0.90;;;;;;;;;;4880614;29;20628;-60
2023/06/30 09:23:51;;;;;;;2.80;0.70;;;;;;;;;;4879721;29;20142;-60
2023/06/30 09:26:17;;;;;;;4.05;0.95;;;;;;;;;;4880104;29;20909;-60
2023/06/30 09:28:44;;;;;;;3.83;1.30;;;;;;;;;;4879228;29;20531;-60
2023/06/30 09:31:10;;;;;;;4.60;1.17;;;;;;;;;;4878742;29;20143;-60
2023/06/30 09:33:37;;;;;;;4.80;1.00;;;;;;;;;;4880516;29;20059;-60
2023/06/30 09:36:04;;;;;;;7.13;1.30;;;;;;;;;;4879809;29;20071;-60
2023/06/30 09:38:30;;;;;;;5.47;1.13;;;;;;;;;;4880090;29;21666;-60
2023/06/30 09:40:56;;;;;;;2.88;0.80;;;;;;;;;;4879964;29;20044;-60
2023/06/30 09:43:23;;;;;;;4.43;1.13;;;;;;;;;;4879133;29;20051;-60
2023/06/30 09:45:56;;;;;;;5.97;1.05;;;;;;;;;;4879143;29;20036;-61
2023/06/30 09:48:38;;;;;;;3.33;1.10;;;;;;;;;;4879647;29;20055;-60
2023/06/30 09:51:06;;;;;;;4.35;0.90;;;;;;;;;;4879605;29;20059;-61
2023/06/30 09:53:40;;;;;;;5.60;1.15;;;;;;;;;;4878265;29;20039;-61
2023/06/30 09:56:06;;;;;;;;;;;;;;;;;;4879556;29;20518;-60
2023/06/30 09:58:32;;;;;;;1.90;0.63;;;;;;;;;;4879727;29;20005;-61
2023/06/30 10:00:58;;;;;;;4.57;1.20;;;;;;;;;;4879675;29;20047;-60
2023/06/30 10:03:25;;;;;;;4.13;0.98;;;;;;;;;;4878550;29;20123;-60
2023/06/30 10:05:52;;;;;;;3.75;1.02;;;;;;;;;;4879293;29;20036;-61
2023/06/30 10:08:20;;;;;;;3.70;0.85;;;;;;;;;;4879129;29;20146;-61
2023/06/30 10:10:47;;;;;;;3.97;1.00;;;;;;;;;;4879860;29;20052;-61
2023/06/30 10:13:15;;;;;;;4.07;0.80;;;;;;;;;;4878233;29;20122;-62
2023/06/30 10:15:41;;;;;;;3.28;0.80;;;;;;;;;;4879466;29;20074;-61
2023/06/30 10:18:12;;;;;;;4.47;0.88;;;;;;;;;;4863981;29;20098;-62
2023/06/30 10:20:38;;;;;;;3.35;0.90;;;;;;;;;;4863434;29;20074;-62
2023/06/30 10:23:05;;;;;;;6.90;1.10;;;;;;;;;;4878042;29;20036;-61
2023/06/30 10:25:35;;;;;;;3.58;1.02;;;;;;;;;;4879572;29;20055;-62
2023/06/30 10:28:02;;;;;;;4.10;1.08;;;;;;;;;;4878393;29;20131;-62
2023/06/30 10:30:28;;;;;;;5.70;1.27;;;;;;;;;;4879138;29;20044;-61
2023/06/30 10:32:57;;;;;;;4.70;1.30;;;;;;;;;;4878480;29;20040;-62
2023/06/30 10:35:23;;;;;;;7.40;1.48;;;;;;;;;;4877641;29;20716;-62
2023/06/30 10:37:49;;;;;;;9.18;1.65;;;;;;;;;;4879272;29;21005;-62
2023/06/30 10:40:25;;;;;;;3.63;0.95;;;;;;;;;;4883755;29;20055;-62
2023/06/30 10:42:52;;;;;;;5.55;1.40;;;;;;;;;;4882753;29;20112;-61
2023/06/30 10:45:19;;;;;;;6.95;1.33;;;;;;;;;;4883505;29;20043;-62
2023/06/30 10:47:50;;;;;;;3.75;1.10;;;;;;;;;;4883394;29;20500;-62
2023/06/30 10:50:16;;;;;;;6.55;1.40;;;;;;;;;;4882865;29;20028;-61
2023/06/30 10:53:08;;;;;;;8.05;1.40;;;;;;;;;;4883232;29;20412;-62
2023/06/30 10:55:34;;;;;;;3.40;0.98;;;;;;;;;;4880011;29;20619;-62
2023/06/30 10:58:04;;;;;;;5.53;1.10;;;;;;;;;;4884169;29;20102;-61
2023/06/30 11:00:34;;;;;;;4.60;1.00;;;;;;;;;;4882690;29;21013;-61
2023/06/30 11:03:00;;;;;;;4.30;1.30;;;;;;;;;;4881616;29;20115;-62
2023/06/30 11:05:28;;;;;;;4.05;1.13;;;;;;;;;;4868526;29;20162;-62
2023/06/30 11:08:15;;;;;;;2.78;0.85;;;;;;;;;;4882568;29;20057;-62
2023/06/30 11:10:44;;;;;;;4.65;1.20;;;;;;;;;;4883345;29;20503;-62
2023/06/30 11:13:10;;;;;;;4.05;1.17;;;;;;;;;;4881647;29;20135;-62
2023/06/30 11:15:37;;;;;;;3.28;1.23;;;;;;;;;;4882576;29;20155;-61
2023/06/30 11:18:05;;;;;;;5.10;1.63;;;;;;;;;;4879510;29;20161;-61
2023/06/30 11:20:32;;;;;;;7.63;1.35;;;;;;;;;;4882412;29;21434;-62
2023/06/30 11:23:02;;;;;;;23.77;2.95;;;;;;;;;;4882714;29;20032;-61
2023/06/30 11:25:29;;;;;;;10.43;3.25;;;;;;;;;;4882225;29;20138;-62
2023/06/30 11:27:56;;;;;;;19.90;3.95;;;;;;;;;;4881304;29;20040;-62
2023/06/30 11:30:22;;;;;;;8.90;1.83;;;;;;;;;;4882290;29;20043;-62
2023/06/30 11:32:48;;;;;;;5.22;1.33;;;;;;;;;;4881870;29;21320;-62
2023/06/30 11:35:17;;;;;;;3.85;1.15;;;;;;;;;;4882506;29;20036;-62
2023/06/30 11:37:50;;;;;;;3.50;1.10;;;;;;;;;;4882808;29;20020;-62
2023/06/30 11:40:16;;;;;;;2.38;0.90;;;;;;;;;;4882072;29;20068;-62
2023/06/30 11:42:43;;;;;;;3.53;1.20;;;;;;;;;;4882191;29;20059;-62
2023/06/30 11:45:09;;;;;;;3.00;0.93;;;;;;;;;;4880654;29;20044;-62
2023/06/30 11:47:36;;;;;;;5.55;1.10;;;;;;;;;;4882241;29;20044;-61
2023/06/30 11:50:07;;;;;;;2.50;0.90;;;;;;;;;;4879648;29;20028;-62
2023/06/30 11:52:33;;;;;;;2.47;1.17;;;;;;;;;;4879299;29;20119;-62
2023/06/30 11:55:02;;;;;;;2.78;0.93;;;;;;;;;;4881318;29;20036;-62
2023/06/30 11:57:34;;;;;;;3.08;1.20;;;;;;;;;;4882172;29;20088;-62
2023/06/30 12:00:06;;;;;;;4.93;1.37;;;;;;;;;;4882014;29;20103;-62
2023/06/30 12:02:32;;;;;;;6.60;1.00;;;;;;;;;;4882180;29;20907;-62
2023/06/30 12:04:58;;;;;;;6.20;1.15;;;;;;;;;;4881811;29;20040;-61
2023/06/30 12:07:25;;;;;;;6.00;1.23;;;;;;;;;;4881140;29;20039;-61
2023/06/30 12:10:00;;;;;;;4.93;1.40;;;;;;;;;;4881095;29;20119;-62
2023/06/30 12:12:30;;;;;;;4.57;1.10;;;;;;;;;;4882397;29;20043;-62
2023/06/30 12:14:59;;;;;;;4.25;1.42;;;;;;;;;;4881538;29;20040;-62
2023/06/30 12:17:26;;;;;;;4.35;1.50;;;;;;;;;;4880808;29;21397;-62
2023/06/30 12:19:52;;;;;;;8.38;1.30;;;;;;;;;;4881668;29;20040;-61
2023/06/30 12:22:27;;;;;;;4.10;1.33;;;;;;;;;;4881953;29;20130;-61
2023/06/30 12:24:59;;;;;;;4.72;1.30;;;;;;;;;;4882155;29;20553;-61
2023/06/30 12:27:27;;;;;;;4.00;1.20;;;;;;;;;;4882979;29;20051;-61
2023/06/30 12:29:54;;;;;;;4.82;1.38;;;;;;;;;;4882198;29;20036;-62
2023/06/30 12:32:20;;;;;;;7.85;1.63;;;;;;;;;;4882682;29;20063;-62
2023/06/30 12:34:47;;;;;;;5.10;1.10;;;;;;;;;;4881284;29;20032;-62
2023/06/30 12:37:15;;;;;;;5.50;1.55;;;;;;;;;;4881528;29;20062;-61
2023/06/30 12:39:41;;;;;;;5.05;1.20;;;;;;;;;;4881238;29;20032;-62
2023/06/30 12:42:07;;;;;;;5.93;1.42;;;;;;;;;;4881378;29;20036;-62
2023/06/30 12:44:33;;;;;;;5.63;1.30;;;;;;;;;;4881935;29;21710;-61
2023/06/30 12:47:00;;;;;;;5.45;1.40;;;;;;;;;;4881583;29;20043;-62
2023/06/30 12:49:28;;;;;;;4.15;1.15;;;;;;;;;;4882015;29;20075;-61
2023/06/30 12:51:54;;;;;;;5.03;1.27;;;;;;;;;;4881681;29;20042;-62
2023/06/30 12:54:20;;;;;;;8.75;2.30;;;;;;;;;;4881419;29;20083;-61
2023/06/30 12:56:46;;;;;;;4.78;1.20;;;;;;;;;;4881081;29;20036;-61
2023/06/30 12:59:12;;;;;;;5.72;1.10;;;;;;;;;;4881485;29;20036;-61
2023/06/30 13:01:38;;;;;;;4.78;1.33;;;;;;;;;;4880820;29;20776;-61
2023/06/30 13:04:04;;;;;;;4.38;1.10;;;;;;;;;;4880298;29;20575;-61
2023/06/30 13:06:30;;;;;;;4.88;1.35;;;;;;;;;;4880052;29;20041;-61
2023/06/30 13:08:56;;;;;;;3.40;1.30;;;;;;;;;;4879853;29;20043;-62
2023/06/30 13:11:23;;;;;;;6.32;1.60;;;;;;;;;;4881012;29;20047;-62
2023/06/30 13:13:49;;;;;;;5.05;1.52;;;;;;;;;;4880627;29;20044;-61
2023/06/30 13:16:15;;;;;;;4.95;1.60;;;;;;;;;;4881759;29;20044;-61
2023/06/30 13:18:41;;;;;;;6.15;1.52;;;;;;;;;;4881343;29;21162;-61
2023/06/30 13:21:07;;;;;;;4.22;1.35;;;;;;;;;;4881787;29;20568;-61
2023/06/30 13:23:34;;;;;;;6.35;1.30;;;;;;;;;;4881062;29;20440;-61
2023/06/30 13:26:00;;;;;;;4.85;1.40;;;;;;;;;;4881530;29;20034;-62
2023/06/30 13:28:26;;;;;;;5.50;1.27;;;;;;;;;;4881457;29;20044;-61
2023/06/30 13:30:52;;;;;;;5.75;1.58;;;;;;;;;;4880652;29;20795;-61
2023/06/30 13:33:18;;;;;;;3.72;1.42;;;;;;;;;;4881047;29;20036;-62
2023/06/30 13:35:44;;;;;;;4.47;1.40;;;;;;;;;;4881124;29;20047;-61
2023/06/30 13:38:11;;;;;;;6.53;1.40;;;;;;;;;;4881631;29;20510;-61
2023/06/30 13:40:40;;;;;;;3.95;1.40;;;;;;;;;;4881207;29;20032;-61
2023/06/30 13:43:06;;;;;;;3.95;1.25;;;;;;;;;;4877669;29;21027;-61
2023/06/30 13:45:32;;;;;;;6.57;1.52;;;;;;;;;;4880083;29;20044;-61
2023/06/30 13:47:58;;;;;;;5.38;1.45;;;;;;;;;;4880800;29;20094;-61
2023/06/30 13:50:25;;;;;;;8.18;1.30;;;;;;;;;;4879730;29;20032;-62
2023/06/30 13:52:51;;;;;;;6.55;1.52;;;;;;;;;;4880326;29;20092;-61
2023/06/30 13:55:17;;;;;;;3.28;1.00;;;;;;;;;;4879835;29;20048;-61
2023/06/30 13:57:43;;;;;;;6.22;1.23;;;;;;;;;;4880769;29;20043;-61
2023/06/30 14:00:10;;;;;;;4.40;1.52;;;;;;;;;;4880705;29;20047;-61
2023/06/30 14:02:36;;;;;;;4.25;1.40;;;;;;;;;;4880398;29;21921;-61
2023/06/30 14:05:03;;;;;;;5.00;1.33;;;;;;;;;;4880655;29;20637;-61
2023/06/30 14:07:29;;;;;;;5.82;1.50;;;;;;;;;;4879851;29;21954;-62
2023/06/30 14:09:57;;;;;;;4.95;1.55;;;;;;;;;;4879791;29;20382;-61
2023/06/30 14:12:23;;;;;;;5.28;1.33;;;;;;;;;;4879974;29;20131;-61
2023/06/30 14:14:50;;;;;;;4.47;1.55;;;;;;;;;;4879418;29;20036;-61
2023/06/30 14:17:16;;;;;;;6.47;1.50;;;;;;;;;;4880018;29;20056;-61
2023/06/30 14:19:42;;;;;;;4.45;1.10;;;;;;;;;;4880067;29;20028;-61
2023/06/30 14:22:08;;;;;;;4.82;1.40;;;;;;;;;;4880408;29;20028;-62
2023/06/30 14:24:34;;;;;;;4.22;1.65;;;;;;;;;;4879407;29;20079;-61
2023/06/30 14:27:00;;;;;;;8.13;1.73;;;;;;;;;;4879152;29;20393;-61
2023/06/30 14:29:26;;;;;;;4.10;1.48;;;;;;;;;;4879891;29;20040;-62
2023/06/30 14:31:52;;;;;;;5.03;2.03;;;;;;;;;;4880270;29;21288;-61
2023/06/30 14:34:18;;;;;;;4.40;1.30;;;;;;;;;;4880351;29;21750;-61
2023/06/30 14:36:44;;;;;;;3.90;1.35;;;;;;;;;;4880203;29;20032;-61
2023/06/30 14:39:10;;;;;;;3.58;1.38;;;;;;;;;;4880252;29;20028;-61
2023/06/30 14:41:37;;;;;;;4.47;1.20;;;;;;;;;;4876626;29;20032;-61